Time;durP1;ratioP1;P1;durP2;ratioP2;P2;SDS_P1;SDS_P2;PMS_P1;PMS_P2;Temp;Humidity;BMP_temperature;BMP_pressure;BME280_temperature;BME280_humidity;BME280_pressure;Samples;Min_cycle;Max_cycle;Signal;HPM_P1;HPM_P2
2023/01/10 00:01:27;;;;;;;1999.90;999.90;;;3.60;99.90;;;;;;5052275;28;20156;-74
2023/01/10 00:03:52;;;;;;;1999.90;999.90;;;3.60;99.90;;;;;;5058843;28;20191;-75
2023/01/10 00:06:18;;;;;;;1999.90;999.90;;;3.50;99.90;;;;;;5062287;28;20060;-75
2023/01/10 00:08:44;;;;;;;1999.90;999.90;;;3.60;99.90;;;;;;5059022;28;20074;-75
2023/01/10 00:13:55;;;;;;;1999.90;999.90;;;3.50;99.90;;;;;;5058379;28;20074;-75
2023/01/10 00:16:21;;;;;;;1999.90;999.90;;;3.40;99.90;;;;;;5052378;28;20029;-75
2023/01/10 00:18:47;;;;;;;1999.90;999.90;;;3.50;99.90;;;;;;5059256;28;20743;-75
2023/01/10 00:21:15;;;;;;;1999.90;999.90;;;3.40;99.90;;;;;;5052826;28;20052;-76
2023/01/10 00:23:43;;;;;;;1999.90;999.90;;;3.40;99.90;;;;;;5061835;28;20058;-75
2023/01/10 00:26:09;;;;;;;1999.90;999.90;;;3.50;99.90;;;;;;5065700;28;20048;-75
2023/01/10 00:28:34;;;;;;;1999.90;999.90;;;3.40;99.90;;;;;;5062377;28;20029;-75
2023/01/10 00:31:05;;;;;;;1999.90;999.90;;;3.50;99.90;;;;;;5056836;28;20033;-75
2023/01/10 00:33:32;;;;;;;1999.90;999.90;;;3.60;99.90;;;;;;5058311;28;20035;-75
2023/01/10 00:35:59;;;;;;;1999.90;999.90;;;3.50;99.90;;;;;;5049889;28;20380;-75
2023/01/10 00:38:24;;;;;;;1999.90;999.90;;;3.50;99.90;;;;;;5052427;28;20036;-75
2023/01/10 00:40:50;;;;;;;1999.90;999.90;;;3.60;99.90;;;;;;5060710;28;20032;-75
2023/01/10 00:46:01;;;;;;;1545.00;767.47;;;3.60;99.90;;;;;;5054119;28;20102;-75
2023/01/10 00:48:27;;;;;;;1999.90;999.90;;;3.60;99.90;;;;;;5065733;28;20082;-74
2023/01/10 00:50:52;;;;;;;1999.90;999.90;;;3.50;99.90;;;;;;5054347;28;20029;-75
2023/01/10 00:53:18;;;;;;;1999.90;999.90;;;3.50;99.90;;;;;;5062363;28;20082;-75
2023/01/10 00:55:44;;;;;;;1999.90;999.90;;;3.50;99.90;;;;;;5045155;28;20047;-74
2023/01/10 00:58:11;;;;;;;1999.90;999.90;;;3.60;99.90;;;;;;5061340;28;20036;-74
2023/01/10 01:00:42;;;;;;;1999.90;999.90;;;3.60;99.90;;;;;;5057696;28;20087;-74
2023/01/10 01:03:07;;;;;;;1999.90;999.90;;;3.60;99.90;;;;;;5058400;28;20032;-74
2023/01/10 01:05:38;;;;;;;1999.90;999.90;;;3.60;99.90;;;;;;5059085;28;20044;-75
2023/01/10 01:08:04;;;;;;;1999.90;999.90;;;3.70;99.90;;;;;;5059616;28;20028;-74
2023/01/10 01:10:30;;;;;;;1270.57;629.13;;;3.60;99.90;;;;;;5057943;28;20170;-74
2023/01/10 01:12:58;;;;;;;1999.90;999.90;;;3.70;99.90;;;;;;5059580;28;20054;-75
2023/01/10 01:15:25;;;;;;;1999.90;999.90;;;3.60;99.90;;;;;;5064286;28;20115;-75
2023/01/10 01:17:52;;;;;;;1999.90;999.90;;;3.70;99.90;;;;;;5060387;28;20020;-74
2023/01/10 01:20:18;;;;;;;1999.90;999.90;;;3.70;99.90;;;;;;5049660;28;20040;-74
2023/01/10 01:22:44;;;;;;;1558.72;778.03;;;3.70;99.90;;;;;;5055720;28;20078;-75
2023/01/10 01:25:10;;;;;;;1999.90;999.90;;;3.70;99.90;;;;;;5059804;28;20429;-75
2023/01/10 01:27:37;;;;;;;1999.90;999.90;;;3.50;99.90;;;;;;5060209;28;20405;-75
2023/01/10 01:30:04;;;;;;;1999.90;999.90;;;3.50;99.90;;;;;;5053302;28;20049;-75
2023/01/10 01:32:30;;;;;;;1999.90;999.90;;;3.50;99.90;;;;;;5061913;28;20048;-75
2023/01/10 01:34:55;;;;;;;1999.90;999.90;;;3.40;99.90;;;;;;5063366;28;20040;-75
2023/01/10 01:37:21;;;;;;;1999.90;999.90;;;3.30;99.90;;;;;;5062170;28;20571;-75
2023/01/10 01:39:47;;;;;;;1999.90;999.90;;;3.30;99.90;;;;;;5060201;28;20032;-74
2023/01/10 01:42:33;;;;;;;1999.90;999.90;;;3.20;99.90;;;;;;5061634;28;20021;-75
2023/01/10 01:45:22;;;;;;;1999.90;999.90;;;3.20;99.90;;;;;;5064299;28;20055;-74
2023/01/10 01:48:08;;;;;;;1999.90;999.90;;;3.30;99.90;;;;;;5060573;28;20025;-75
2023/01/10 01:50:40;;;;;;;309.65;137.75;;;3.30;99.90;;;;;;5057895;28;20024;-75
2023/01/10 01:53:13;;;;;;;1999.90;999.90;;;3.20;99.90;;;;;;5066154;28;20162;-75
2023/01/10 01:55:40;;;;;;;1999.90;999.90;;;3.30;99.90;;;;;;5066055;28;20058;-75
2023/01/10 01:58:12;;;;;;;1999.90;999.90;;;3.30;99.90;;;;;;5065401;28;20032;-75
2023/01/10 02:00:37;;;;;;;1999.90;999.90;;;3.50;99.90;;;;;;5061875;28;20634;-75
2023/01/10 02:03:05;;;;;;;1999.90;999.90;;;3.40;99.90;;;;;;5060721;28;20065;-75
2023/01/10 02:05:34;;;;;;;1999.90;999.90;;;3.50;99.90;;;;;;5061529;28;20033;-75
2023/01/10 02:08:01;;;;;;;1999.90;999.90;;;3.50;99.90;;;;;;5065229;28;20040;-75
2023/01/10 02:10:29;;;;;;;1999.90;999.90;;;3.50;99.90;;;;;;5059368;28;20633;-75
2023/01/10 02:13:00;;;;;;;1999.90;999.90;;;3.60;99.90;;;;;;5060040;28;20024;-75
2023/01/10 02:15:26;;;;;;;1999.90;999.90;;;3.40;99.90;;;;;;5062749;28;20029;-75
2023/01/10 02:17:52;;;;;;;1999.90;999.90;;;3.40;99.90;;;;;;5060712;28;20033;-75
2023/01/10 02:20:21;;;;;;;1999.90;999.90;;;3.20;99.90;;;;;;5054823;28;20081;-75
2023/01/10 02:23:24;;;;;;;1999.90;999.90;;;3.30;99.90;;;;;;5040317;28;20365;-75
2023/01/10 02:26:14;;;;;;;1999.90;999.90;;;3.20;99.90;;;;;;5061775;28;20059;-75
2023/01/10 02:29:16;;;;;;;1999.90;999.90;;;3.30;99.90;;;;;;5054598;28;20082;-75
2023/01/10 02:32:19;;;;;;;1999.90;999.90;;;3.40;99.90;;;;;;5057877;28;20051;-75
2023/01/10 02:35:15;;;;;;;1999.90;999.90;;;3.20;99.90;;;;;;5055386;28;20025;-75
2023/01/10 02:37:59;;;;;;;1999.90;999.90;;;3.30;99.90;;;;;;5060903;28;20066;-75
2023/01/10 02:40:51;;;;;;;1999.90;999.90;;;3.30;99.90;;;;;;5057583;28;20037;-75
2023/01/10 02:43:21;;;;;;;1999.90;999.90;;;3.40;99.90;;;;;;5062014;28;20465;-75
2023/01/10 02:45:49;;;;;;;1999.90;999.90;;;3.40;99.90;;;;;;5062813;28;20257;-75
2023/01/10 02:48:16;;;;;;;1999.90;999.90;;;3.30;99.90;;;;;;5060607;28;20036;-75
2023/01/10 02:50:42;;;;;;;1999.90;999.90;;;3.40;99.90;;;;;;5056406;28;20401;-75
2023/01/10 02:53:12;;;;;;;1999.90;999.90;;;3.30;99.90;;;;;;5061566;28;20036;-75
2023/01/10 02:55:52;;;;;;;1999.90;999.90;;;3.40;99.90;;;;;;5059810;28;20028;-75
2023/01/10 02:58:36;;;;;;;;;;;3.50;99.90;;;;;;5068675;28;20028;-75
2023/01/10 03:01:29;;;;;;;1999.90;999.90;;;3.40;99.90;;;;;;5058077;28;19952;-74
2023/01/10 03:04:10;;;;;;;1999.90;999.90;;;3.40;99.90;;;;;;5058445;28;20025;-75
2023/01/10 03:06:54;;;;;;;1999.90;999.90;;;3.50;99.90;;;;;;5060712;28;20029;-75
2023/01/10 03:09:43;;;;;;;1999.90;999.90;;;3.40;99.90;;;;;;5064262;28;20086;-75
2023/01/10 03:12:16;;;;;;;1999.90;999.90;;;3.30;99.90;;;;;;5059896;28;20051;-75
2023/01/10 03:14:44;;;;;;;1999.90;999.90;;;3.40;99.90;;;;;;5055839;28;20035;-75
2023/01/10 03:17:12;;;;;;;1999.90;999.90;;;3.40;99.90;;;;;;5057286;28;20032;-75
2023/01/10 03:19:47;;;;;;;1999.90;999.90;;;3.40;99.90;;;;;;5050842;28;20510;-75
2023/01/10 03:22:13;;;;;;;1085.18;529.00;;;3.50;99.90;;;;;;5054023;28;20016;-75
2023/01/10 03:24:43;;;;;;;1999.90;999.90;;;3.50;99.90;;;;;;5057887;28;20566;-75
2023/01/10 03:27:17;;;;;;;1999.90;999.90;;;3.40;99.90;;;;;;5052112;28;20035;-74
2023/01/10 03:29:56;;;;;;;177.38;81.82;;;3.40;99.90;;;;;;5015061;28;1185549;-75
2023/01/10 03:32:27;;;;;;;1999.90;999.90;;;3.40;99.90;;;;;;5064195;28;20039;-75
2023/01/10 03:34:53;;;;;;;1999.90;999.90;;;3.40;99.90;;;;;;5063085;28;20253;-75
2023/01/10 03:37:24;;;;;;;1999.90;999.90;;;3.40;99.90;;;;;;5054037;28;20037;-75
2023/01/10 03:40:15;;;;;;;1999.90;999.90;;;3.50;99.90;;;;;;5052945;28;20034;-75
2023/01/10 03:45:43;;;;;;;1592.05;817.78;;;3.50;99.90;;;;;;5061980;28;20024;-76
2023/01/10 03:48:12;;;;;;;1999.90;999.90;;;3.50;99.90;;;;;;5047422;28;20024;-75
2023/01/10 03:50:39;;;;;;;1999.90;999.90;;;3.50;99.90;;;;;;5061298;28;20043;-75
2023/01/10 03:53:05;;;;;;;1999.90;999.90;;;3.50;99.90;;;;;;5045809;28;20032;-75
2023/01/10 03:55:33;;;;;;;1558.78;787.47;;;3.50;99.90;;;;;;5057450;28;20407;-75
2023/01/10 03:57:59;;;;;;;1999.90;999.90;;;3.50;99.90;;;;;;5065968;28;20047;-74
2023/01/10 04:00:25;;;;;;;1999.90;999.90;;;3.40;99.90;;;;;;5057602;28;20486;-75
2023/01/10 04:02:51;;;;;;;1999.90;999.90;;;3.50;99.90;;;;;;5059418;28;20060;-76
2023/01/10 04:05:17;;;;;;;1999.90;999.90;;;3.50;99.90;;;;;;5056697;28;20021;-76
2023/01/10 04:07:42;;;;;;;1999.90;999.90;;;3.50;99.90;;;;;;5048151;28;20436;-75
2023/01/10 04:10:08;;;;;;;1999.90;999.90;;;3.40;99.90;;;;;;5057672;28;20033;-75
2023/01/10 04:12:34;;;;;;;1999.90;999.90;;;3.40;99.90;;;;;;5056392;28;20024;-75
2023/01/10 04:15:00;;;;;;;1999.90;999.90;;;3.50;99.90;;;;;;5055239;28;20162;-76
2023/01/10 04:17:25;;;;;;;1999.90;999.90;;;3.30;99.90;;;;;;5057091;28;20070;-75
2023/01/10 04:19:51;;;;;;;1999.90;999.90;;;3.40;99.90;;;;;;5053653;28;20021;-75
2023/01/10 04:22:17;;;;;;;1999.90;999.90;;;3.40;99.90;;;;;;5060240;28;20748;-75
2023/01/10 04:24:43;;;;;;;1999.90;999.90;;;3.30;99.90;;;;;;5059130;28;20028;-76
2023/01/10 04:27:08;;;;;;;1999.90;999.90;;;3.20;99.90;;;;;;5055324;28;20024;-75
2023/01/10 04:29:34;;;;;;;1999.90;999.90;;;3.10;99.90;;;;;;5061351;28;20406;-76
2023/01/10 04:32:00;;;;;;;1999.90;999.90;;;3.20;99.90;;;;;;5062633;28;20132;-76
2023/01/10 04:34:25;;;;;;;1999.90;999.90;;;3.20;99.90;;;;;;5039933;28;20037;-76
2023/01/10 04:36:51;;;;;;;1036.85;517.67;;;3.20;99.90;;;;;;5061805;28;20044;-75
2023/01/10 04:39:17;;;;;;;1999.90;999.90;;;3.20;99.90;;;;;;5058796;28;20032;-75
2023/01/10 04:41:42;;;;;;;1999.90;999.90;;;3.30;99.90;;;;;;5060488;28;20096;-76
2023/01/10 04:44:08;;;;;;;1999.90;999.90;;;3.20;99.90;;;;;;5053297;28;20379;-75
2023/01/10 04:46:34;;;;;;;1999.90;999.90;;;3.10;99.90;;;;;;5047419;28;20052;-75
2023/01/10 04:48:59;;;;;;;1999.90;999.90;;;2.90;99.90;;;;;;5041630;28;20115;-73
2023/01/10 04:51:27;;;;;;;1999.90;999.90;;;2.90;99.90;;;;;;5062943;28;20393;-75
2023/01/10 04:53:53;;;;;;;1999.90;999.90;;;2.90;99.90;;;;;;5061045;28;20060;-75
2023/01/10 04:56:20;;;;;;;1999.90;999.90;;;2.90;99.90;;;;;;5063322;28;20040;-75
2023/01/10 04:58:47;;;;;;;1999.90;999.90;;;2.90;99.90;;;;;;5064432;28;20040;-75
2023/01/10 05:01:21;;;;;;;1999.90;999.90;;;2.90;99.90;;;;;;5063583;28;20402;-75
2023/01/10 05:03:52;;;;;;;1999.90;999.90;;;2.90;99.90;;;;;;5062290;28;20021;-75
2023/01/10 05:06:18;;;;;;;1999.90;999.90;;;3.00;99.90;;;;;;5064344;28;20086;-75
2023/01/10 05:08:44;;;;;;;1999.90;999.90;;;3.00;99.90;;;;;;5060796;28;20049;-75
2023/01/10 05:11:10;;;;;;;1999.90;999.90;;;2.90;99.90;;;;;;5063342;28;20101;-75
2023/01/10 05:13:36;;;;;;;1999.90;999.90;;;2.90;99.90;;;;;;5057048;28;20767;-74
2023/01/10 05:16:02;;;;;;;1999.90;999.90;;;2.90;99.90;;;;;;5062415;28;20029;-76
2023/01/10 05:18:28;;;;;;;1999.90;999.90;;;2.90;99.90;;;;;;5041772;28;20084;-75
2023/01/10 05:21:06;;;;;;;1999.90;999.90;;;3.00;99.90;;;;;;5058808;28;20121;-76
2023/01/10 05:23:33;;;;;;;1999.90;999.90;;;3.10;99.90;;;;;;5066066;28;20481;-76
2023/01/10 05:26:09;;;;;;;1999.90;999.90;;;3.00;99.90;;;;;;5055843;28;20025;-77
2023/01/10 05:28:34;;;;;;;1999.90;999.90;;;3.10;99.90;;;;;;5063486;28;20029;-76
2023/01/10 05:31:00;;;;;;;1999.90;999.90;;;3.10;99.90;;;;;;5054978;28;20108;-76
2023/01/10 05:33:26;;;;;;;1999.90;999.90;;;3.10;99.90;;;;;;5054958;28;20037;-76
2023/01/10 05:35:52;;;;;;;1999.90;999.90;;;3.00;99.90;;;;;;5059361;28;20392;-76
2023/01/10 05:38:18;;;;;;;1999.90;999.90;;;3.10;99.90;;;;;;5060180;28;20055;-77
2023/01/10 05:40:43;;;;;;;1999.90;999.90;;;3.20;99.90;;;;;;5059862;28;20064;-75
2023/01/10 05:43:10;;;;;;;1999.90;999.90;;;3.20;99.90;;;;;;5058936;28;20060;-76
2023/01/10 05:45:36;;;;;;;1999.90;999.90;;;3.20;99.90;;;;;;5057585;28;20036;-77
2023/01/10 05:48:02;;;;;;;1999.90;999.90;;;3.20;99.90;;;;;;5054253;28;20025;-75
2023/01/10 05:50:28;;;;;;;1999.90;999.90;;;3.20;99.90;;;;;;5041332;28;20028;-76
2023/01/10 05:52:53;;;;;;;1199.10;596.47;;;3.30;99.90;;;;;;5055619;28;20132;-76
2023/01/10 05:55:19;;;;;;;1999.90;999.90;;;3.20;99.90;;;;;;5056191;28;20045;-76
2023/01/10 05:57:44;;;;;;;1999.90;999.90;;;3.20;99.90;;;;;;5060828;28;20028;-76
2023/01/10 06:00:11;;;;;;;1999.90;999.90;;;3.20;99.90;;;;;;5057002;28;20029;-76
2023/01/10 06:02:37;;;;;;;1999.90;999.90;;;3.30;99.90;;;;;;5055594;28;20031;-76
2023/01/10 06:05:02;;;;;;;1999.90;999.90;;;3.20;99.90;;;;;;5064862;28;20013;-76
2023/01/10 06:07:28;;;;;;;1999.90;999.90;;;3.20;99.90;;;;;;5056156;28;20028;-76
2023/01/10 06:09:54;;;;;;;1999.90;999.90;;;3.20;99.90;;;;;;5040646;28;20033;-77
2023/01/10 06:12:19;;;;;;;1999.90;999.90;;;3.30;99.90;;;;;;5051266;28;20035;-76
2023/01/10 06:14:45;;;;;;;1999.90;999.90;;;3.30;99.90;;;;;;5054432;28;20248;-76
2023/01/10 06:17:11;;;;;;;1999.90;999.90;;;3.20;99.90;;;;;;5058454;28;20028;-77
2023/01/10 06:19:37;;;;;;;1999.90;999.90;;;3.30;99.90;;;;;;5042675;28;20033;-76
2023/01/10 06:22:03;;;;;;;1999.90;999.90;;;3.30;99.90;;;;;;5051598;28;20390;-77
2023/01/10 06:24:28;;;;;;;1999.90;999.90;;;3.30;99.90;;;;;;5060523;28;20623;-77
2023/01/10 06:26:54;;;;;;;1999.90;999.90;;;3.20;99.90;;;;;;5048964;28;20036;-76
2023/01/10 06:29:20;;;;;;;1999.90;999.90;;;3.30;99.90;;;;;;5057507;28;20045;-77
2023/01/10 06:31:45;;;;;;;1999.90;999.90;;;3.30;99.90;;;;;;5059466;28;20327;-76
2023/01/10 06:34:11;;;;;;;1999.90;999.90;;;3.20;99.90;;;;;;5064791;28;20451;-76
2023/01/10 06:36:37;;;;;;;1999.90;999.90;;;3.30;99.90;;;;;;5060545;28;20045;-77
2023/01/10 06:39:02;;;;;;;1999.90;999.90;;;3.30;99.90;;;;;;5060869;28;20059;-77
2023/01/10 06:41:28;;;;;;;1999.90;999.90;;;3.30;99.90;;;;;;5058772;28;20032;-76
2023/01/10 06:43:54;;;;;;;1999.90;999.90;;;3.30;99.90;;;;;;5057616;28;20082;-77
2023/01/10 06:46:20;;;;;;;1999.90;999.90;;;3.20;99.90;;;;;;5061211;28;20036;-77
2023/01/10 06:48:46;;;;;;;1999.90;999.90;;;3.10;99.90;;;;;;5055713;28;20017;-77
2023/01/10 06:51:14;;;;;;;1999.90;999.90;;;3.10;99.90;;;;;;5058172;28;20823;-78
2023/01/10 06:53:40;;;;;;;1999.90;999.90;;;3.20;99.90;;;;;;5058609;28;20021;-77
2023/01/10 06:56:07;;;;;;;1999.90;999.90;;;3.20;99.90;;;;;;5045876;28;20033;-76
2023/01/10 06:58:33;;;;;;;1999.90;999.90;;;3.20;99.90;;;;;;5059603;28;20024;-76
2023/01/10 07:00:59;;;;;;;1999.90;999.90;;;3.20;99.90;;;;;;5057166;28;20040;-77
2023/01/10 07:03:24;;;;;;;1999.90;999.90;;;3.10;99.90;;;;;;5062113;28;20550;-75
2023/01/10 07:05:50;;;;;;;1999.90;999.90;;;3.20;99.90;;;;;;5059599;28;20032;-77
2023/01/10 07:08:16;;;;;;;1999.90;999.90;;;3.10;99.90;;;;;;5060941;28;20116;-77
2023/01/10 07:10:43;;;;;;;1999.90;999.90;;;3.10;99.90;;;;;;5057807;28;20482;-77
2023/01/10 07:13:09;;;;;;;1999.90;999.90;;;3.10;99.90;;;;;;5045390;28;20052;-77
2023/01/10 07:15:35;;;;;;;1999.90;999.90;;;3.20;99.90;;;;;;5059488;28;20055;-77
2023/01/10 07:18:01;;;;;;;1999.90;999.90;;;3.20;99.90;;;;;;5054314;28;20024;-76
2023/01/10 07:20:27;;;;;;;1999.90;999.90;;;3.30;99.90;;;;;;5060739;28;20041;-76
2023/01/10 07:22:58;;;;;;;1999.90;999.90;;;3.30;99.90;;;;;;5058141;28;20074;-77
2023/01/10 07:25:25;;;;;;;1999.90;999.90;;;3.20;99.90;;;;;;5066638;28;20057;-76
2023/01/10 07:27:54;;;;;;;1999.90;999.90;;;3.20;99.90;;;;;;5058623;28;20041;-76
2023/01/10 07:30:19;;;;;;;1999.90;999.90;;;3.20;99.90;;;;;;5056608;28;20111;-76
2023/01/10 07:32:51;;;;;;;1999.90;999.90;;;3.10;99.90;;;;;;5062540;28;20041;-76
2023/01/10 07:35:16;;;;;;;1999.90;999.90;;;3.00;99.90;;;;;;5044586;28;20032;-77
2023/01/10 07:37:43;;;;;;;1999.90;999.90;;;3.10;99.90;;;;;;5063201;28;20033;-76
2023/01/10 07:40:10;;;;;;;1999.90;999.90;;;3.10;99.90;;;;;;5056644;28;20060;-79
2023/01/10 07:42:36;;;;;;;1999.90;999.90;;;3.10;99.90;;;;;;5034863;28;20041;-79
2023/01/10 07:45:01;;;;;;;1999.90;999.90;;;3.20;99.90;;;;;;5065596;28;20444;-79
2023/01/10 07:47:27;;;;;;;1999.90;999.90;;;3.20;99.90;;;;;;5058572;28;20036;-79
2023/01/10 07:49:53;;;;;;;1999.90;999.90;;;3.20;99.90;;;;;;5056378;28;20025;-79
2023/01/10 07:52:18;;;;;;;1999.90;999.90;;;3.20;99.90;;;;;;5044703;28;20032;-79
2023/01/10 07:54:44;;;;;;;1999.90;999.90;;;3.30;99.90;;;;;;5061307;28;20427;-79
2023/01/10 07:57:09;;;;;;;1999.90;999.90;;;3.40;99.90;;;;;;5055365;28;20071;-79
2023/01/10 07:59:35;;;;;;;1999.90;999.90;;;3.30;99.90;;;;;;5039767;28;20380;-78
2023/01/10 08:02:01;;;;;;;1999.90;999.90;;;3.20;99.90;;;;;;5079549;28;20033;-79
2023/01/10 08:04:27;;;;;;;1999.90;999.90;;;3.30;99.90;;;;;;5058375;28;20714;-79
2023/01/10 08:06:53;;;;;;;1999.90;999.90;;;3.30;99.90;;;;;;5053445;28;20037;-79
2023/01/10 08:09:19;;;;;;;1999.90;999.90;;;3.30;99.90;;;;;;5057916;28;20078;-80
2023/01/10 08:11:45;;;;;;;1999.90;999.90;;;3.30;99.90;;;;;;5060759;28;20032;-80
2023/01/10 08:14:11;;;;;;;1999.90;999.90;;;3.30;99.90;;;;;;5076887;28;20090;-80
2023/01/10 08:16:37;;;;;;;812.03;373.95;;;3.30;99.90;;;;;;5060042;28;20037;-80
2023/01/10 08:19:03;;;;;;;1999.90;999.90;;;3.30;99.90;;;;;;5058796;28;20406;-80
2023/01/10 08:21:29;;;;;;;1999.90;999.90;;;3.20;99.90;;;;;;5042683;28;20029;-80
2023/01/10 08:23:54;;;;;;;1999.90;999.90;;;3.20;99.90;;;;;;5043387;28;20043;-79
2023/01/10 08:26:20;;;;;;;1999.90;999.90;;;3.20;99.90;;;;;;5058943;28;20041;-80
2023/01/10 08:28:45;;;;;;;1999.90;999.90;;;3.20;99.90;;;;;;5056648;28;20028;-75
2023/01/10 08:31:11;;;;;;;1999.90;999.90;;;3.40;99.90;;;;;;5060383;28;20036;-75
2023/01/10 08:33:38;;;;;;;1999.90;999.90;;;3.30;99.90;;;;;;5032093;28;20060;-78
2023/01/10 08:36:04;;;;;;;1999.90;999.90;;;3.20;99.90;;;;;;5061888;28;20341;-78
2023/01/10 08:38:30;;;;;;;1999.90;999.90;;;3.10;99.90;;;;;;5045723;28;20469;-78
2023/01/10 08:40:59;;;;;;;1999.90;999.90;;;3.10;99.90;;;;;;5036010;28;20555;-79
2023/01/10 08:43:25;;;;;;;1999.90;999.90;;;3.20;99.90;;;;;;5045760;28;20801;-79
2023/01/10 08:45:50;;;;;;;1999.90;999.90;;;3.20;99.90;;;;;;5056765;28;20113;-80
2023/01/10 08:48:17;;;;;;;1999.90;999.90;;;3.20;99.90;;;;;;5055519;28;20033;-79
2023/01/10 08:50:43;;;;;;;1999.90;999.90;;;3.20;99.90;;;;;;5061487;28;20730;-79
2023/01/10 08:53:09;;;;;;;1999.90;999.90;;;3.20;99.90;;;;;;5041544;28;20032;-78
2023/01/10 08:55:37;;;;;;;1999.90;999.90;;;3.30;99.90;;;;;;5057169;28;20044;-78
2023/01/10 08:58:03;;;;;;;1999.90;999.90;;;3.40;99.90;;;;;;5062959;28;20082;-78
2023/01/10 09:00:29;;;;;;;1999.90;999.90;;;3.50;99.90;;;;;;5055558;28;20520;-78
2023/01/10 09:02:54;;;;;;;1999.90;999.90;;;3.50;99.90;;;;;;5063551;28;20025;-79
2023/01/10 09:05:20;;;;;;;1999.90;999.90;;;3.50;99.90;;;;;;5056215;28;20040;-79
2023/01/10 09:07:47;;;;;;;1999.90;999.90;;;3.50;99.90;;;;;;5045700;28;20086;-79
2023/01/10 09:10:13;;;;;;;768.58;411.90;;;3.50;99.90;;;;;;5058854;28;20474;-78
2023/01/10 09:12:53;;;;;;;1999.90;999.90;;;3.50;99.90;;;;;;5053002;28;20111;-77
2023/01/10 09:15:23;;;;;;;1999.90;999.90;;;3.60;99.90;;;;;;5060178;28;20047;-77
2023/01/10 09:17:48;;;;;;;1999.90;999.90;;;3.60;99.90;;;;;;5055185;28;20040;-77
2023/01/10 09:20:15;;;;;;;1999.90;999.90;;;3.60;99.90;;;;;;5058566;28;20387;-77
2023/01/10 09:22:40;;;;;;;1999.90;999.90;;;3.60;99.90;;;;;;5058642;28;20044;-73
2023/01/10 09:25:07;;;;;;;1999.90;999.90;;;3.70;99.90;;;;;;5054041;28;20033;-79
2023/01/10 09:27:33;;;;;;;1999.90;999.90;;;3.70;99.90;;;;;;5059911;28;20608;-79
2023/01/10 09:29:58;;;;;;;1999.90;999.90;;;3.70;99.90;;;;;;5052983;28;20053;-80
2023/01/10 09:32:25;;;;;;;1999.90;999.90;;;3.70;99.90;;;;;;5061619;28;20032;-79
2023/01/10 09:34:50;;;;;;;1999.90;999.90;;;3.80;99.90;;;;;;5056576;28;20028;-79
2023/01/10 09:37:17;;;;;;;1999.90;999.90;;;3.80;99.90;;;;;;5043170;28;20029;-79
2023/01/10 09:39:43;;;;;;;1999.90;999.90;;;4.10;99.90;;;;;;5044093;28;20487;-79
2023/01/10 09:42:27;;;;;;;1999.90;999.90;;;4.00;99.90;;;;;;5056944;28;20036;-81
2023/01/10 09:45:01;;;;;;;1999.90;999.90;;;4.10;99.90;;;;;;5060067;28;20047;-81
2023/01/10 09:47:36;;;;;;;1999.90;999.90;;;4.00;99.90;;;;;;5064756;28;20035;-81
2023/01/10 09:50:14;;;;;;;1999.90;999.90;;;4.00;99.90;;;;;;5061219;28;20117;-82
2023/01/10 09:52:48;;;;;;;1999.90;999.90;;;4.00;99.90;;;;;;5056411;28;20032;-81
2023/01/10 09:55:27;;;;;;;1999.90;999.90;;;4.10;99.90;;;;;;5056020;28;20032;-82
2023/01/10 09:57:55;;;;;;;1999.90;999.90;;;4.20;99.90;;;;;;5062469;28;20074;-80
2023/01/10 10:00:37;;;;;;;1999.90;999.90;;;4.10;99.90;;;;;;5069197;28;20164;-80
2023/01/10 10:03:09;;;;;;;1999.90;999.90;;;4.10;99.90;;;;;;5065532;28;20509;-80
2023/01/10 10:05:35;;;;;;;177.63;82.55;;;4.20;99.90;;;;;;5061532;28;20077;-80
2023/01/10 10:08:01;;;;;;;1999.90;999.90;;;4.50;99.90;;;;;;5055666;28;20028;-79
2023/01/10 10:10:41;;;;;;;1999.90;999.90;;;4.40;99.90;;;;;;5058589;28;20776;-81
2023/01/10 10:13:20;;;;;;;1999.90;999.90;;;4.40;99.90;;;;;;5060163;28;20476;-80
2023/01/10 10:15:56;;;;;;;1999.90;999.90;;;4.70;99.90;;;;;;5058852;28;20033;-80
2023/01/10 10:18:40;;;;;;;1999.90;999.90;;;4.60;99.90;;;;;;5061795;28;20056;-80
2023/01/10 10:21:29;;;;;;;1999.90;999.90;;;4.50;99.90;;;;;;5074538;28;20795;-80
2023/01/10 10:24:24;;;;;;;415.50;341.50;;;4.40;99.90;;;;;;5066258;28;20041;-80
2023/01/10 10:26:58;;;;;;;1999.90;999.90;;;4.50;99.90;;;;;;5056357;28;20029;-81
2023/01/10 10:29:37;;;;;;;969.00;533.22;;;4.80;99.90;;;;;;5052761;28;20037;-83
2023/01/10 10:32:02;;;;;;;1999.90;999.90;;;4.70;99.90;;;;;;5056648;28;20122;-83
2023/01/10 10:34:48;;;;;;;1032.95;520.22;;;4.90;99.90;;;;;;5064888;28;20060;-83
2023/01/10 10:37:32;;;;;;;1999.90;999.90;;;5.10;99.90;;;;;;5060988;28;20132;-82
2023/01/10 10:40:04;;;;;;;564.08;461.98;;;4.90;99.90;;;;;;5063964;28;20498;-82
2023/01/10 10:42:34;;;;;;;1999.90;999.90;;;4.80;99.90;;;;;;5058086;28;20087;-82
2023/01/10 10:45:32;;;;;;;1373.22;814.00;;;4.80;99.90;;;;;;5065018;28;20835;-82
2023/01/10 10:48:22;;;;;;;1999.90;999.90;;;4.80;99.90;;;;;;5065863;28;20033;-82
2023/01/10 10:51:01;;;;;;;904.30;783.35;;;4.90;99.90;;;;;;5058183;28;20368;-81
2023/01/10 10:53:28;;;;;;;1149.47;633.60;;;4.70;99.90;;;;;;5068960;28;20055;-82
2023/01/10 10:55:55;;;;;;;1999.90;999.90;;;4.90;99.90;;;;;;5067014;28;20047;-82
2023/01/10 10:58:21;;;;;;;855.10;573.10;;;4.90;99.90;;;;;;5062464;28;20025;-82
2023/01/10 11:00:47;;;;;;;1074.43;560.40;;;5.00;99.90;;;;;;5061086;28;20817;-80
2023/01/10 11:03:24;;;;;;;1573.43;813.38;;;5.10;99.90;;;;;;5059143;28;20029;-82
2023/01/10 11:05:51;;;;;;;1236.57;712.10;;;5.10;99.90;;;;;;5060804;28;20116;-81
2023/01/10 11:08:19;;;;;;;531.22;473.58;;;5.00;99.90;;;;;;5059417;28;20029;-80
2023/01/10 11:10:53;;;;;;;1443.57;900.30;;;5.10;99.90;;;;;;5057139;28;20070;-81
2023/01/10 11:13:33;;;;;;;838.70;768.10;;;5.00;99.90;;;;;;5048887;28;20625;-80
2023/01/10 11:16:01;;;;;;;991.30;911.55;;;5.00;99.90;;;;;;5059803;28;20052;-80
2023/01/10 11:18:28;;;;;;;935.65;841.30;;;4.90;99.90;;;;;;5058762;28;20055;-80
2023/01/10 11:20:58;;;;;;;879.03;758.67;;;5.10;99.90;;;;;;5057786;28;20115;-80
2023/01/10 11:23:39;;;;;;;975.15;894.58;;;5.00;99.90;;;;;;5058766;28;20029;-80
2023/01/10 11:26:34;;;;;;;990.28;918.78;;;5.10;99.90;;;;;;5064152;28;20036;-80
2023/01/10 11:29:26;;;;;;;961.22;895.67;;;5.20;99.90;;;;;;5058906;28;20025;-80
2023/01/10 11:31:53;;;;;;;971.22;902.40;;;5.20;99.90;;;;;;5062453;28;20036;-80
2023/01/10 11:34:28;;;;;;;954.17;885.92;;;5.20;99.90;;;;;;5063966;28;20016;-81
2023/01/10 11:37:17;;;;;;;946.63;881.15;;;5.20;99.90;;;;;;5056778;28;20168;-81
2023/01/10 11:39:43;;;;;;;731.65;671.40;;;5.30;99.90;;;;;;5060648;28;20068;-80
2023/01/10 11:42:23;;;;;;;718.55;666.67;;;5.20;99.90;;;;;;5058704;28;20082;-81
2023/01/10 11:44:50;;;;;;;719.75;673.40;;;5.00;99.90;;;;;;5057799;28;20029;-81
2023/01/10 11:47:19;;;;;;;718.42;642.65;;;4.90;99.90;;;;;;5059025;28;20017;-80
2023/01/10 11:49:48;;;;;;;786.10;742.35;;;4.70;99.90;;;;;;5055629;28;20033;-79
2023/01/10 11:52:31;;;;;;;796.70;750.40;;;4.80;99.90;;;;;;5055383;28;20021;-79
2023/01/10 11:54:59;;;;;;;867.67;811.88;;;4.80;99.90;;;;;;5045804;28;20036;-79
2023/01/10 11:57:29;;;;;;;732.00;693.00;;;4.90;99.90;;;;;;5058257;28;20623;-79
2023/01/10 12:00:00;;;;;;;773.33;726.08;;;4.80;99.90;;;;;;5061724;28;20036;-79
2023/01/10 12:02:29;;;;;;;804.67;753.25;;;4.90;99.90;;;;;;5052060;28;20127;-72
2023/01/10 12:04:58;;;;;;;731.03;686.03;;;4.80;99.90;;;;;;5053576;28;20033;-65
2023/01/10 12:07:23;;;;;;;730.42;678.58;;;4.70;99.90;;;;;;5060164;28;20392;-66
2023/01/10 12:09:58;;;;;;;751.90;710.78;;;4.50;99.90;;;;;;5062176;28;20024;-65
2023/01/10 12:12:33;;;;;;;829.00;780.58;;;4.50;99.90;;;;;;5057138;28;20039;-64
2023/01/10 12:15:22;;;;;;;839.20;786.90;;;4.50;99.90;;;;;;5056367;28;20025;-64
2023/01/10 12:17:48;;;;;;;732.00;692.45;;;4.50;99.90;;;;;;5058225;28;20494;-64
2023/01/10 12:20:14;;;;;;;592.70;562.08;;;4.40;99.90;;;;;;5057588;28;20041;-65
2023/01/10 12:22:44;;;;;;;729.67;687.83;;;4.10;99.90;;;;;;5060332;28;20112;-64
2023/01/10 12:25:39;;;;;;;768.77;725.23;;;4.10;99.90;;;;;;5063586;28;20072;-64
2023/01/10 12:28:16;;;;;;;792.22;746.90;;;4.30;99.90;;;;;;5060620;28;20275;-64
2023/01/10 12:30:48;;;;;;;801.05;754.85;;;4.60;99.90;;;;;;5051439;28;20045;-64
2023/01/10 12:33:56;;;;;;;715.88;678.47;;;4.60;99.90;;;;;;5055972;28;20063;-65